Hauptseite
METAR-TAF:

METAR-TAF

Flughäfen :

Amman, Jordanien

Flughafen Marka International

Breite: 31-59N, Länge: 035-59E, Höhe: 767 m

Beobachtung

Neuester Wetterbericht von vor 1 Stunde und 6 Minuten, um 13:00 UTC
Wind 8 kt aus Nord/Nordwest
Temperatur 28°C
Luftfeuchtigkeit 17%
Luftdruck 1017 hPa
Sichtweite: 5000 m
trockener Dunst

METAR: OJAM 201300Z 33008KT 5000 HZ NSC 28/01 Q1017 NOSIG

Zeit: 17:06 (14:06 UTC)

Prognose

Neuester Wetterbericht von vor 3 Stunden und 16 Minuten, um 10:50 UTC
Gültige Prognose vom 20 um 12 UTC bis 21 um 18 UTC
Wind 2 kt aus unterschiedlichen Richtungen
Sichtweite: 5000 m
trockener Dunst
Zeitweise
vom 20 um 12 UTC bis 20 um 16 UTC
Wind 8 kt aus West/Nordwest
Sichtweite: 4000 m
trockener Dunst

TAF: OJAM 201050Z 2012/2118 VRB02KT 5000 HZ NSC TEMPO 2012/2016 29008KT 4000 HZ

Wetterbeobachtungen und Prognosen von mehr als 4000 Flughäfen (METAR und TAF Bericht).

Die verfügbaren Stationen werden durch gelbe und rote Markierungen auf der Karte dargestellt.

Führen Sie die Maus auf sie, um den Namen der Station zu sehen.

Darauf klicken, um die Beobachtung von Wetterbeobachtungen und Prognosen zu sehen.

Um die Karte zu ändern : klicken Sie auf den grünen Tasten mit einem schwarzen Kreuz Zum Vergrößern, auf den grünen Button mit einem Gedankenstrich zu verkleinern, oder auf die grünen Pfeile für benachbarte Karten.


METAR-TAF: